Aberdeen, United Kingdom
Current Conditions -  °F | °C
As of 5:20 AM on Thursday 27 Nov 2014 (Local Time) from EGPD Reporting Station
Drizzle Drizzle  
Wind Chill: 43°   Ceiling: 1800
Heat Index: 43°   Visibility: 1.8mi
Dew Point: 41°   Wind: 2mph
Humidity: 93%   Direction: 310°NW
Pressure: 29.71"   Gusts: NA
Location:  57.15°N, 2.1°W
Report Text: EGPD 270520Z 31002KT 3000 -DZ FEW005 BKN018 06/05 Q1006 TEMPO 6000
Loading
Personal Weather Stations






























Interactive Weather Map New forecast layout! Learn more

10-Day Weather Forecast

Advertisements
Track Severe Weather on mobile